sensor_id;sensor_type;location;lat;lon;timestamp;P1;durP1;ratioP1;P2;durP2;ratioP2
18917;SDS011;9591;52.742;13.650;2023-07-16T00:01:12;2.63;;;2.40;;
18917;SDS011;9591;52.742;13.650;2023-07-16T00:03:58;4.80;;;2.50;;
18917;SDS011;9591;52.742;13.650;2023-07-16T00:06:47;3.83;;;2.57;;
18917;SDS011;9591;52.742;13.650;2023-07-16T00:09:33;3.30;;;2.43;;
18917;SDS011;9591;52.742;13.650;2023-07-16T00:12:20;3.47;;;2.40;;
18917;SDS011;9591;52.742;13.650;2023-07-16T00:15:07;5.23;;;2.50;;
18917;SDS011;9591;52.742;13.650;2023-07-16T00:17:55;6.40;;;2.40;;
18917;SDS011;9591;52.742;13.650;2023-07-16T00:20:42;3.73;;;2.63;;
18917;SDS011;9591;52.742;13.650;2023-07-16T00:23:30;2.47;;;2.27;;
18917;SDS011;9591;52.742;13.650;2023-07-16T00:26:16;3.20;;;2.80;;
18917;SDS011;9591;52.742;13.650;2023-07-16T00:29:03;2.60;;;2.23;;
18917;SDS011;9591;52.742;13.650;2023-07-16T00:31:50;3.13;;;2.83;;
18917;SDS011;9591;52.742;13.650;2023-07-16T00:34:37;3.10;;;2.70;;
18917;SDS011;9591;52.742;13.650;2023-07-16T00:37:26;3.97;;;2.57;;
18917;SDS011;9591;52.742;13.650;2023-07-16T00:40:14;4.40;;;2.60;;
18917;SDS011;9591;52.742;13.650;2023-07-16T00:43:01;2.83;;;2.53;;
18917;SDS011;9591;52.742;13.650;2023-07-16T00:45:48;3.27;;;2.43;;
18917;SDS011;9591;52.742;13.650;2023-07-16T00:48:35;7.07;;;2.67;;
18917;SDS011;9591;52.742;13.650;2023-07-16T00:51:23;3.60;;;2.70;;
18917;SDS011;9591;52.742;13.650;2023-07-16T00:54:11;4.87;;;2.20;;
18917;SDS011;9591;52.742;13.650;2023-07-16T00:57:00;3.27;;;2.50;;
18917;SDS011;9591;52.742;13.650;2023-07-16T00:59:47;3.07;;;2.63;;
18917;SDS011;9591;52.742;13.650;2023-07-16T01:02:34;4.87;;;2.50;;
18917;SDS011;9591;52.742;13.650;2023-07-16T01:05:21;3.67;;;2.80;;
18917;SDS011;9591;52.742;13.650;2023-07-16T01:08:11;3.23;;;2.57;;
18917;SDS011;9591;52.742;13.650;2023-07-16T01:11:01;3.23;;;2.37;;
18917;SDS011;9591;52.742;13.650;2023-07-16T01:13:53;2.50;;;2.30;;
18917;SDS011;9591;52.742;13.650;2023-07-16T01:16:41;3.77;;;2.63;;
18917;SDS011;9591;52.742;13.650;2023-07-16T01:19:31;4.90;;;2.50;;
18917;SDS011;9591;52.742;13.650;2023-07-16T01:22:34;3.23;;;2.80;;
18917;SDS011;9591;52.742;13.650;2023-07-16T01:25:36;4.83;;;3.10;;
18917;SDS011;9591;52.742;13.650;2023-07-16T01:31:55;9.57;;;3.40;;
18917;SDS011;9591;52.742;13.650;2023-07-16T01:34:43;6.40;;;3.17;;
18917;SDS011;9591;52.742;13.650;2023-07-16T01:37:33;8.33;;;3.10;;
18917;SDS011;9591;52.742;13.650;2023-07-16T01:40:23;5.30;;;3.40;;
18917;SDS011;9591;52.742;13.650;2023-07-16T01:43:10;6.87;;;3.53;;
18917;SDS011;9591;52.742;13.650;2023-07-16T01:45:59;5.80;;;3.73;;
18917;SDS011;9591;52.742;13.650;2023-07-16T01:48:45;5.93;;;3.67;;
18917;SDS011;9591;52.742;13.650;2023-07-16T01:51:33;4.50;;;3.50;;
18917;SDS011;9591;52.742;13.650;2023-07-16T01:54:20;6.83;;;3.40;;
18917;SDS011;9591;52.742;13.650;2023-07-16T01:57:06;5.90;;;3.50;;
18917;SDS011;9591;52.742;13.650;2023-07-16T01:59:53;3.20;;;2.90;;
18917;SDS011;9591;52.742;13.650;2023-07-16T02:02:41;6.03;;;3.37;;
18917;SDS011;9591;52.742;13.650;2023-07-16T02:05:30;5.63;;;3.37;;
18917;SDS011;9591;52.742;13.650;2023-07-16T02:08:17;7.05;;;3.60;;
18917;SDS011;9591;52.742;13.650;2023-07-16T02:11:04;4.10;;;2.87;;
18917;SDS011;9591;52.742;13.650;2023-07-16T02:13:51;8.03;;;3.43;;
18917;SDS011;9591;52.742;13.650;2023-07-16T02:16:38;5.10;;;3.50;;
18917;SDS011;9591;52.742;13.650;2023-07-16T02:19:26;5.73;;;3.60;;
18917;SDS011;9591;52.742;13.650;2023-07-16T02:22:13;6.77;;;3.60;;
18917;SDS011;9591;52.742;13.650;2023-07-16T02:25:00;5.63;;;3.40;;
18917;SDS011;9591;52.742;13.650;2023-07-16T02:27:47;7.23;;;3.70;;
18917;SDS011;9591;52.742;13.650;2023-07-16T02:30:34;5.13;;;3.50;;
18917;SDS011;9591;52.742;13.650;2023-07-16T02:33:21;7.40;;;3.23;;
18917;SDS011;9591;52.742;13.650;2023-07-16T02:36:09;6.50;;;3.33;;
18917;SDS011;9591;52.742;13.650;2023-07-16T02:38:56;4.77;;;3.50;;
18917;SDS011;9591;52.742;13.650;2023-07-16T02:41:43;9.30;;;3.87;;
18917;SDS011;9591;52.742;13.650;2023-07-16T02:44:30;4.80;;;3.40;;
18917;SDS011;9591;52.742;13.650;2023-07-16T02:47:17;5.33;;;3.80;;
18917;SDS011;9591;52.742;13.650;2023-07-16T02:50:04;7.40;;;3.77;;
18917;SDS011;9591;52.742;13.650;2023-07-16T02:52:52;5.53;;;3.90;;
18917;SDS011;9591;52.742;13.650;2023-07-16T02:55:39;4.27;;;3.47;;
18917;SDS011;9591;52.742;13.650;2023-07-16T02:58:26;6.70;;;3.90;;
18917;SDS011;9591;52.742;13.650;2023-07-16T03:01:13;5.63;;;3.50;;
18917;SDS011;9591;52.742;13.650;2023-07-16T03:04:00;7.60;;;3.83;;
18917;SDS011;9591;52.742;13.650;2023-07-16T03:06:48;7.37;;;4.13;;
18917;SDS011;9591;52.742;13.650;2023-07-16T03:09:36;5.17;;;3.73;;
18917;SDS011;9591;52.742;13.650;2023-07-16T03:12:23;6.60;;;4.00;;
18917;SDS011;9591;52.742;13.650;2023-07-16T03:15:10;5.93;;;3.57;;
18917;SDS011;9591;52.742;13.650;2023-07-16T03:17:56;7.90;;;3.90;;
18917;SDS011;9591;52.742;13.650;2023-07-16T03:20:43;5.13;;;3.37;;
18917;SDS011;9591;52.742;13.650;2023-07-16T03:23:30;7.30;;;4.20;;
18917;SDS011;9591;52.742;13.650;2023-07-16T03:26:18;6.97;;;4.70;;
18917;SDS011;9591;52.742;13.650;2023-07-16T03:29:06;8.13;;;4.07;;
18917;SDS011;9591;52.742;13.650;2023-07-16T03:31:53;7.70;;;4.30;;
18917;SDS011;9591;52.742;13.650;2023-07-16T03:34:41;5.83;;;4.50;;
18917;SDS011;9591;52.742;13.650;2023-07-16T03:37:28;6.27;;;4.30;;
18917;SDS011;9591;52.742;13.650;2023-07-16T03:40:15;7.27;;;4.43;;
18917;SDS011;9591;52.742;13.650;2023-07-16T03:43:05;6.30;;;4.33;;
18917;SDS011;9591;52.742;13.650;2023-07-16T03:45:53;8.23;;;4.13;;
18917;SDS011;9591;52.742;13.650;2023-07-16T03:48:41;5.03;;;4.23;;
18917;SDS011;9591;52.742;13.650;2023-07-16T03:51:27;5.80;;;3.70;;
18917;SDS011;9591;52.742;13.650;2023-07-16T03:54:14;6.40;;;4.07;;
18917;SDS011;9591;52.742;13.650;2023-07-16T03:57:01;7.50;;;4.20;;
18917;SDS011;9591;52.742;13.650;2023-07-16T03:59:51;5.57;;;4.13;;
18917;SDS011;9591;52.742;13.650;2023-07-16T04:02:38;7.03;;;4.27;;
18917;SDS011;9591;52.742;13.650;2023-07-16T04:05:29;7.07;;;3.67;;
18917;SDS011;9591;52.742;13.650;2023-07-16T04:08:16;8.77;;;4.30;;
18917;SDS011;9591;52.742;13.650;2023-07-16T04:11:02;4.80;;;3.57;;
18917;SDS011;9591;52.742;13.650;2023-07-16T04:13:50;7.70;;;3.97;;
18917;SDS011;9591;52.742;13.650;2023-07-16T04:16:38;7.77;;;4.07;;
18917;SDS011;9591;52.742;13.650;2023-07-16T04:19:25;6.93;;;4.00;;
18917;SDS011;9591;52.742;13.650;2023-07-16T04:22:12;7.83;;;3.90;;
18917;SDS011;9591;52.742;13.650;2023-07-16T04:24:59;6.63;;;4.20;;
18917;SDS011;9591;52.742;13.650;2023-07-16T04:27:46;6.27;;;3.60;;
18917;SDS011;9591;52.742;13.650;2023-07-16T04:30:32;5.73;;;3.43;;
18917;SDS011;9591;52.742;13.650;2023-07-16T04:33:21;5.53;;;3.60;;
18917;SDS011;9591;52.742;13.650;2023-07-16T04:36:08;7.07;;;3.80;;
18917;SDS011;9591;52.742;13.650;2023-07-16T04:38:54;5.30;;;3.53;;
18917;SDS011;9591;52.742;13.650;2023-07-16T04:41:41;8.07;;;3.53;;
18917;SDS011;9591;52.742;13.650;2023-07-16T04:44:28;6.97;;;3.87;;
18917;SDS011;9591;52.742;13.650;2023-07-16T04:47:15;6.60;;;4.00;;
18917;SDS011;9591;52.742;13.650;2023-07-16T04:50:03;6.80;;;3.37;;
18917;SDS011;9591;52.742;13.650;2023-07-16T04:52:50;6.53;;;3.70;;
18917;SDS011;9591;52.742;13.650;2023-07-16T04:55:37;7.03;;;3.83;;
18917;SDS011;9591;52.742;13.650;2023-07-16T04:58:25;6.27;;;3.83;;
18917;SDS011;9591;52.742;13.650;2023-07-16T05:01:11;6.60;;;4.10;;
18917;SDS011;9591;52.742;13.650;2023-07-16T05:03:58;4.57;;;3.20;;
18917;SDS011;9591;52.742;13.650;2023-07-16T05:06:47;5.93;;;3.50;;
18917;SDS011;9591;52.742;13.650;2023-07-16T05:09:33;8.73;;;3.67;;
18917;SDS011;9591;52.742;13.650;2023-07-16T05:12:20;3.50;;;3.20;;
18917;SDS011;9591;52.742;13.650;2023-07-16T05:15:08;7.87;;;3.70;;
18917;SDS011;9591;52.742;13.650;2023-07-16T05:17:55;4.60;;;2.97;;
18917;SDS011;9591;52.742;13.650;2023-07-16T05:20:43;10.53;;;3.47;;
18917;SDS011;9591;52.742;13.650;2023-07-16T05:23:34;7.03;;;3.30;;
18917;SDS011;9591;52.742;13.650;2023-07-16T05:26:21;3.90;;;3.20;;
18917;SDS011;9591;52.742;13.650;2023-07-16T05:29:07;6.93;;;3.30;;
18917;SDS011;9591;52.742;13.650;2023-07-16T05:31:54;4.23;;;3.30;;
18917;SDS011;9591;52.742;13.650;2023-07-16T05:34:41;4.70;;;3.50;;
18917;SDS011;9591;52.742;13.650;2023-07-16T05:37:28;8.50;;;3.03;;
18917;SDS011;9591;52.742;13.650;2023-07-16T05:40:16;6.30;;;3.23;;
18917;SDS011;9591;52.742;13.650;2023-07-16T05:43:03;5.43;;;2.70;;
18917;SDS011;9591;52.742;13.650;2023-07-16T05:45:50;6.03;;;2.97;;
18917;SDS011;9591;52.742;13.650;2023-07-16T05:48:37;3.50;;;2.80;;
18917;SDS011;9591;52.742;13.650;2023-07-16T05:51:24;4.13;;;2.57;;
18917;SDS011;9591;52.742;13.650;2023-07-16T05:54:10;5.07;;;2.87;;
18917;SDS011;9591;52.742;13.650;2023-07-16T05:56:59;6.37;;;2.87;;
18917;SDS011;9591;52.742;13.650;2023-07-16T05:59:46;2.97;;;2.60;;
18917;SDS011;9591;52.742;13.650;2023-07-16T06:02:33;4.07;;;2.77;;
18917;SDS011;9591;52.742;13.650;2023-07-16T06:05:19;4.83;;;2.90;;
18917;SDS011;9591;52.742;13.650;2023-07-16T06:08:06;2.57;;;2.27;;
18917;SDS011;9591;52.742;13.650;2023-07-16T06:10:53;2.90;;;2.60;;
18917;SDS011;9591;52.742;13.650;2023-07-16T06:13:41;3.00;;;2.40;;
18917;SDS011;9591;52.742;13.650;2023-07-16T06:16:28;3.93;;;2.40;;
18917;SDS011;9591;52.742;13.650;2023-07-16T06:19:16;4.10;;;2.50;;
18917;SDS011;9591;52.742;13.650;2023-07-16T06:22:03;3.77;;;2.50;;
18917;SDS011;9591;52.742;13.650;2023-07-16T06:24:50;3.37;;;2.83;;
18917;SDS011;9591;52.742;13.650;2023-07-16T06:27:37;4.47;;;3.10;;
18917;SDS011;9591;52.742;13.650;2023-07-16T06:30:25;4.07;;;3.07;;
18917;SDS011;9591;52.742;13.650;2023-07-16T06:33:12;4.30;;;3.13;;
18917;SDS011;9591;52.742;13.650;2023-07-16T06:35:59;3.87;;;3.03;;
18917;SDS011;9591;52.742;13.650;2023-07-16T06:38:45;5.93;;;2.87;;
18917;SDS011;9591;52.742;13.650;2023-07-16T06:41:32;5.00;;;3.47;;
18917;SDS011;9591;52.742;13.650;2023-07-16T06:44:19;7.87;;;3.30;;
18917;SDS011;9591;52.742;13.650;2023-07-16T06:47:07;3.63;;;3.20;;
18917;SDS011;9591;52.742;13.650;2023-07-16T06:49:54;4.43;;;3.20;;
18917;SDS011;9591;52.742;13.650;2023-07-16T06:52:41;8.03;;;3.47;;
18917;SDS011;9591;52.742;13.650;2023-07-16T06:55:28;6.37;;;3.30;;
18917;SDS011;9591;52.742;13.650;2023-07-16T06:58:14;5.47;;;3.30;;
18917;SDS011;9591;52.742;13.650;2023-07-16T07:01:01;6.30;;;3.10;;
18917;SDS011;9591;52.742;13.650;2023-07-16T07:03:49;3.87;;;3.47;;
18917;SDS011;9591;52.742;13.650;2023-07-16T07:06:36;4.27;;;3.20;;
18917;SDS011;9591;52.742;13.650;2023-07-16T07:09:24;4.03;;;3.30;;
18917;SDS011;9591;52.742;13.650;2023-07-16T07:12:11;4.33;;;3.13;;
18917;SDS011;9591;52.742;13.650;2023-07-16T07:14:58;6.20;;;3.70;;
18917;SDS011;9591;52.742;13.650;2023-07-16T07:17:45;3.23;;;2.90;;
18917;SDS011;9591;52.742;13.650;2023-07-16T07:20:33;5.23;;;3.37;;
18917;SDS011;9591;52.742;13.650;2023-07-16T07:23:20;5.60;;;3.63;;
18917;SDS011;9591;52.742;13.650;2023-07-16T07:26:07;5.60;;;2.97;;
18917;SDS011;9591;52.742;13.650;2023-07-16T07:28:53;4.93;;;3.33;;
18917;SDS011;9591;52.742;13.650;2023-07-16T07:31:40;6.60;;;3.60;;
18917;SDS011;9591;52.742;13.650;2023-07-16T07:34:28;3.70;;;2.93;;
18917;SDS011;9591;52.742;13.650;2023-07-16T07:37:20;7.27;;;3.27;;
18917;SDS011;9591;52.742;13.650;2023-07-16T07:40:07;3.90;;;3.40;;
18917;SDS011;9591;52.742;13.650;2023-07-16T07:42:54;8.63;;;3.43;;
18917;SDS011;9591;52.742;13.650;2023-07-16T07:45:41;4.70;;;3.53;;
18917;SDS011;9591;52.742;13.650;2023-07-16T07:48:28;4.93;;;3.30;;
18917;SDS011;9591;52.742;13.650;2023-07-16T07:51:15;3.63;;;3.27;;
18917;SDS011;9591;52.742;13.650;2023-07-16T07:54:03;3.53;;;3.03;;
18917;SDS011;9591;52.742;13.650;2023-07-16T07:56:49;4.23;;;3.33;;
18917;SDS011;9591;52.742;13.650;2023-07-16T07:59:36;4.53;;;3.37;;
18917;SDS011;9591;52.742;13.650;2023-07-16T08:02:23;5.50;;;3.13;;
18917;SDS011;9591;52.742;13.650;2023-07-16T08:05:10;4.00;;;3.33;;
18917;SDS011;9591;52.742;13.650;2023-07-16T08:07:57;6.30;;;3.20;;
18917;SDS011;9591;52.742;13.650;2023-07-16T08:10:45;4.77;;;3.40;;
18917;SDS011;9591;52.742;13.650;2023-07-16T08:13:32;5.97;;;3.30;;
18917;SDS011;9591;52.742;13.650;2023-07-16T08:16:19;3.67;;;3.03;;
18917;SDS011;9591;52.742;13.650;2023-07-16T08:19:06;6.07;;;3.20;;
18917;SDS011;9591;52.742;13.650;2023-07-16T08:21:53;5.30;;;3.30;;
18917;SDS011;9591;52.742;13.650;2023-07-16T08:24:40;4.20;;;3.20;;
18917;SDS011;9591;52.742;13.650;2023-07-16T08:27:28;3.87;;;3.23;;
18917;SDS011;9591;52.742;13.650;2023-07-16T08:30:15;2.83;;;2.60;;
18917;SDS011;9591;52.742;13.650;2023-07-16T08:33:02;3.87;;;2.93;;
18917;SDS011;9591;52.742;13.650;2023-07-16T08:35:48;9.43;;;3.03;;
18917;SDS011;9591;52.742;13.650;2023-07-16T08:38:35;5.07;;;2.93;;
18917;SDS011;9591;52.742;13.650;2023-07-16T08:41:22;3.57;;;2.80;;
18917;SDS011;9591;52.742;13.650;2023-07-16T08:44:11;4.07;;;2.47;;
18917;SDS011;9591;52.742;13.650;2023-07-16T08:46:58;3.37;;;2.37;;
18917;SDS011;9591;52.742;13.650;2023-07-16T08:49:50;3.90;;;2.60;;
18917;SDS011;9591;52.742;13.650;2023-07-16T08:52:41;4.33;;;2.57;;
18917;SDS011;9591;52.742;13.650;2023-07-16T08:55:29;2.20;;;2.00;;
18917;SDS011;9591;52.742;13.650;2023-07-16T08:58:17;2.47;;;2.27;;
18917;SDS011;9591;52.742;13.650;2023-07-16T09:01:07;4.43;;;2.57;;
18917;SDS011;9591;52.742;13.650;2023-07-16T09:03:55;4.07;;;2.30;;
18917;SDS011;9591;52.742;13.650;2023-07-16T09:06:43;5.97;;;2.37;;
18917;SDS011;9591;52.742;13.650;2023-07-16T09:09:30;2.13;;;1.97;;
18917;SDS011;9591;52.742;13.650;2023-07-16T09:12:16;4.60;;;2.30;;
18917;SDS011;9591;52.742;13.650;2023-07-16T09:15:04;3.40;;;2.20;;
18917;SDS011;9591;52.742;13.650;2023-07-16T09:17:56;3.17;;;2.10;;
18917;SDS011;9591;52.742;13.650;2023-07-16T09:20:43;5.30;;;2.17;;
18917;SDS011;9591;52.742;13.650;2023-07-16T09:23:30;3.90;;;2.50;;
18917;SDS011;9591;52.742;13.650;2023-07-16T09:26:17;2.97;;;2.30;;
18917;SDS011;9591;52.742;13.650;2023-07-16T09:29:05;5.87;;;2.70;;
18917;SDS011;9591;52.742;13.650;2023-07-16T09:31:53;4.83;;;2.10;;
18917;SDS011;9591;52.742;13.650;2023-07-16T09:34:42;2.77;;;2.33;;
18917;SDS011;9591;52.742;13.650;2023-07-16T09:37:29;10.83;;;2.73;;
18917;SDS011;9591;52.742;13.650;2023-07-16T09:40:16;4.90;;;2.77;;
18917;SDS011;9591;52.742;13.650;2023-07-16T09:43:03;5.97;;;2.50;;
18917;SDS011;9591;52.742;13.650;2023-07-16T09:45:50;2.73;;;2.10;;
18917;SDS011;9591;52.742;13.650;2023-07-16T09:48:37;3.67;;;2.10;;
18917;SDS011;9591;52.742;13.650;2023-07-16T09:51:25;7.47;;;2.80;;
18917;SDS011;9591;52.742;13.650;2023-07-16T09:54:14;2.20;;;1.80;;
18917;SDS011;9591;52.742;13.650;2023-07-16T09:57:01;5.60;;;1.93;;
18917;SDS011;9591;52.742;13.650;2023-07-16T09:59:50;2.40;;;1.77;;
18917;SDS011;9591;52.742;13.650;2023-07-16T10:02:40;3.13;;;2.00;;
18917;SDS011;9591;52.742;13.650;2023-07-16T10:05:28;4.17;;;2.33;;
18917;SDS011;9591;52.742;13.650;2023-07-16T10:08:17;2.83;;;2.10;;
18917;SDS011;9591;52.742;13.650;2023-07-16T10:11:14;4.37;;;2.27;;
18917;SDS011;9591;52.742;13.650;2023-07-16T10:14:02;3.13;;;2.10;;
18917;SDS011;9591;52.742;13.650;2023-07-16T10:16:49;3.27;;;2.30;;
18917;SDS011;9591;52.742;13.650;2023-07-16T10:19:45;4.17;;;2.20;;
18917;SDS011;9591;52.742;13.650;2023-07-16T10:22:33;5.13;;;2.10;;
18917;SDS011;9591;52.742;13.650;2023-07-16T10:25:23;4.50;;;2.10;;
18917;SDS011;9591;52.742;13.650;2023-07-16T10:28:11;5.03;;;2.10;;
18917;SDS011;9591;52.742;13.650;2023-07-16T10:30:58;3.63;;;2.27;;
18917;SDS011;9591;52.742;13.650;2023-07-16T10:33:55;4.67;;;2.13;;
18917;SDS011;9591;52.742;13.650;2023-07-16T10:36:44;4.50;;;2.43;;
18917;SDS011;9591;52.742;13.650;2023-07-16T10:39:30;3.37;;;2.03;;
18917;SDS011;9591;52.742;13.650;2023-07-16T10:42:19;3.97;;;1.93;;
18917;SDS011;9591;52.742;13.650;2023-07-16T10:45:07;4.00;;;1.87;;
18917;SDS011;9591;52.742;13.650;2023-07-16T10:47:54;6.23;;;2.00;;
18917;SDS011;9591;52.742;13.650;2023-07-16T10:50:41;2.57;;;1.90;;
18917;SDS011;9591;52.742;13.650;2023-07-16T10:53:28;2.27;;;1.90;;
18917;SDS011;9591;52.742;13.650;2023-07-16T10:56:15;4.43;;;1.80;;
18917;SDS011;9591;52.742;13.650;2023-07-16T10:59:03;3.00;;;1.80;;
18917;SDS011;9591;52.742;13.650;2023-07-16T11:01:50;2.77;;;1.97;;
18917;SDS011;9591;52.742;13.650;2023-07-16T11:04:38;5.67;;;1.80;;
18917;SDS011;9591;52.742;13.650;2023-07-16T11:07:26;3.73;;;1.70;;
18917;SDS011;9591;52.742;13.650;2023-07-16T11:10:14;3.10;;;1.60;;
18917;SDS011;9591;52.742;13.650;2023-07-16T11:13:02;6.40;;;1.90;;
18917;SDS011;9591;52.742;13.650;2023-07-16T11:15:50;2.80;;;1.60;;
18917;SDS011;9591;52.742;13.650;2023-07-16T11:18:37;5.83;;;1.97;;
18917;SDS011;9591;52.742;13.650;2023-07-16T11:21:24;7.30;;;1.90;;
18917;SDS011;9591;52.742;13.650;2023-07-16T11:24:12;11.27;;;2.27;;
18917;SDS011;9591;52.742;13.650;2023-07-16T11:27:00;3.73;;;1.70;;
18917;SDS011;9591;52.742;13.650;2023-07-16T11:29:47;3.53;;;1.67;;
18917;SDS011;9591;52.742;13.650;2023-07-16T11:32:37;6.13;;;1.90;;
18917;SDS011;9591;52.742;13.650;2023-07-16T11:35:29;6.03;;;1.90;;
18917;SDS011;9591;52.742;13.650;2023-07-16T11:38:17;3.00;;;1.67;;
18917;SDS011;9591;52.742;13.650;2023-07-16T11:41:04;6.83;;;2.10;;
18917;SDS011;9591;52.742;13.650;2023-07-16T11:43:51;5.90;;;1.97;;
18917;SDS011;9591;52.742;13.650;2023-07-16T11:46:37;3.00;;;1.80;;
18917;SDS011;9591;52.742;13.650;2023-07-16T11:49:26;4.90;;;2.00;;
18917;SDS011;9591;52.742;13.650;2023-07-16T11:52:12;4.70;;;1.80;;
18917;SDS011;9591;52.742;13.650;2023-07-16T11:54:59;2.23;;;1.90;;
18917;SDS011;9591;52.742;13.650;2023-07-16T11:57:46;3.60;;;1.90;;
18917;SDS011;9591;52.742;13.650;2023-07-16T12:00:33;3.77;;;2.00;;
18917;SDS011;9591;52.742;13.650;2023-07-16T12:03:20;3.10;;;1.90;;
18917;SDS011;9591;52.742;13.650;2023-07-16T12:06:08;2.80;;;2.00;;
18917;SDS011;9591;52.742;13.650;2023-07-16T12:08:55;3.77;;;2.20;;
18917;SDS011;9591;52.742;13.650;2023-07-16T12:11:41;5.17;;;2.10;;
18917;SDS011;9591;52.742;13.650;2023-07-16T12:14:28;3.40;;;2.10;;
18917;SDS011;9591;52.742;13.650;2023-07-16T12:17:15;3.63;;;2.00;;
18917;SDS011;9591;52.742;13.650;2023-07-16T12:20:02;2.77;;;1.93;;
18917;SDS011;9591;52.742;13.650;2023-07-16T12:22:51;2.50;;;1.93;;
18917;SDS011;9591;52.742;13.650;2023-07-16T12:25:38;4.13;;;1.90;;
18917;SDS011;9591;52.742;13.650;2023-07-16T12:28:24;2.00;;;1.90;;
18917;SDS011;9591;52.742;13.650;2023-07-16T12:31:11;5.00;;;2.00;;
18917;SDS011;9591;52.742;13.650;2023-07-16T12:33:58;6.13;;;1.90;;
18917;SDS011;9591;52.742;13.650;2023-07-16T12:36:49;2.73;;;1.80;;
18917;SDS011;9591;52.742;13.650;2023-07-16T12:39:39;3.33;;;1.87;;
18917;SDS011;9591;52.742;13.650;2023-07-16T12:42:29;3.47;;;2.00;;
18917;SDS011;9591;52.742;13.650;2023-07-16T12:45:16;4.30;;;2.00;;
18917;SDS011;9591;52.742;13.650;2023-07-16T12:48:03;2.83;;;1.63;;
18917;SDS011;9591;52.742;13.650;2023-07-16T12:50:51;2.67;;;1.70;;
18917;SDS011;9591;52.742;13.650;2023-07-16T12:53:37;5.33;;;2.37;;
18917;SDS011;9591;52.742;13.650;2023-07-16T12:56:26;3.30;;;1.70;;
18917;SDS011;9591;52.742;13.650;2023-07-16T12:59:13;4.03;;;2.00;;
18917;SDS011;9591;52.742;13.650;2023-07-16T13:01:59;2.00;;;1.80;;
18917;SDS011;9591;52.742;13.650;2023-07-16T13:04:46;5.60;;;1.80;;
18917;SDS011;9591;52.742;13.650;2023-07-16T13:07:33;2.87;;;1.80;;
18917;SDS011;9591;52.742;13.650;2023-07-16T13:10:20;4.60;;;1.70;;
18917;SDS011;9591;52.742;13.650;2023-07-16T13:13:10;5.13;;;1.80;;
18917;SDS011;9591;52.742;13.650;2023-07-16T13:15:59;6.40;;;1.70;;
18917;SDS011;9591;52.742;13.650;2023-07-16T13:18:46;3.93;;;1.50;;
18917;SDS011;9591;52.742;13.650;2023-07-16T13:21:33;3.40;;;1.70;;
18917;SDS011;9591;52.742;13.650;2023-07-16T13:24:20;4.17;;;1.80;;
18917;SDS011;9591;52.742;13.650;2023-07-16T13:27:06;5.43;;;2.00;;
18917;SDS011;9591;52.742;13.650;2023-07-16T13:29:57;1.97;;;1.33;;
18917;SDS011;9591;52.742;13.650;2023-07-16T13:32:43;3.20;;;1.70;;
18917;SDS011;9591;52.742;13.650;2023-07-16T13:35:31;4.30;;;1.70;;
18917;SDS011;9591;52.742;13.650;2023-07-16T13:38:18;2.00;;;1.60;;
18917;SDS011;9591;52.742;13.650;2023-07-16T13:41:05;3.17;;;1.50;;
18917;SDS011;9591;52.742;13.650;2023-07-16T13:43:51;3.63;;;2.03;;
18917;SDS011;9591;52.742;13.650;2023-07-16T13:46:40;5.17;;;1.83;;
18917;SDS011;9591;52.742;13.650;2023-07-16T13:49:28;5.67;;;1.90;;
18917;SDS011;9591;52.742;13.650;2023-07-16T13:52:15;3.93;;;1.73;;
18917;SDS011;9591;52.742;13.650;2023-07-16T13:55:02;3.30;;;1.97;;
18917;SDS011;9591;52.742;13.650;2023-07-16T13:57:52;5.97;;;1.63;;
18917;SDS011;9591;52.742;13.650;2023-07-16T14:00:40;2.10;;;1.50;;
18917;SDS011;9591;52.742;13.650;2023-07-16T14:03:28;2.37;;;1.73;;
18917;SDS011;9591;52.742;13.650;2023-07-16T14:06:15;2.30;;;1.57;;
18917;SDS011;9591;52.742;13.650;2023-07-16T14:09:02;5.97;;;1.90;;
18917;SDS011;9591;52.742;13.650;2023-07-16T14:11:51;2.07;;;1.53;;
18917;SDS011;9591;52.742;13.650;2023-07-16T14:14:39;6.67;;;1.50;;
18917;SDS011;9591;52.742;13.650;2023-07-16T14:17:26;5.53;;;1.67;;
18917;SDS011;9591;52.742;13.650;2023-07-16T14:20:14;3.93;;;1.70;;
18917;SDS011;9591;52.742;13.650;2023-07-16T14:23:01;5.03;;;2.20;;
18917;SDS011;9591;52.742;13.650;2023-07-16T14:25:49;2.33;;;1.60;;
18917;SDS011;9591;52.742;13.650;2023-07-16T14:28:37;2.80;;;1.50;;
18917;SDS011;9591;52.742;13.650;2023-07-16T14:31:25;6.50;;;1.80;;
18917;SDS011;9591;52.742;13.650;2023-07-16T14:34:13;4.10;;;1.60;;
18917;SDS011;9591;52.742;13.650;2023-07-16T14:37:01;2.37;;;1.40;;
18917;SDS011;9591;52.742;13.650;2023-07-16T14:39:50;3.17;;;1.50;;
18917;SDS011;9591;52.742;13.650;2023-07-16T14:42:37;4.90;;;1.70;;
18917;SDS011;9591;52.742;13.650;2023-07-16T14:45:23;3.10;;;1.30;;
18917;SDS011;9591;52.742;13.650;2023-07-16T14:48:10;4.43;;;1.93;;
18917;SDS011;9591;52.742;13.650;2023-07-16T14:50:57;4.63;;;1.60;;
18917;SDS011;9591;52.742;13.650;2023-07-16T14:53:46;2.97;;;1.57;;
18917;SDS011;9591;52.742;13.650;2023-07-16T14:56:32;3.70;;;1.40;;
18917;SDS011;9591;52.742;13.650;2023-07-16T14:59:19;2.97;;;1.60;;
18917;SDS011;9591;52.742;13.650;2023-07-16T15:02:06;1.80;;;1.23;;
18917;SDS011;9591;52.742;13.650;2023-07-16T15:04:53;4.87;;;1.40;;
18917;SDS011;9591;52.742;13.650;2023-07-16T15:07:40;5.20;;;1.60;;
18917;SDS011;9591;52.742;13.650;2023-07-16T15:10:28;2.20;;;1.47;;
18917;SDS011;9591;52.742;13.650;2023-07-16T15:13:14;7.03;;;1.50;;
18917;SDS011;9591;52.742;13.650;2023-07-16T15:16:01;3.67;;;1.70;;
18917;SDS011;9591;52.742;13.650;2023-07-16T15:18:49;1.67;;;1.43;;
18917;SDS011;9591;52.742;13.650;2023-07-16T15:21:36;2.33;;;1.67;;
18917;SDS011;9591;52.742;13.650;2023-07-16T15:24:23;4.17;;;1.40;;
18917;SDS011;9591;52.742;13.650;2023-07-16T15:27:11;2.37;;;1.63;;
18917;SDS011;9591;52.742;13.650;2023-07-16T15:29:58;5.23;;;1.80;;
18917;SDS011;9591;52.742;13.650;2023-07-16T15:32:47;3.87;;;1.70;;
18917;SDS011;9591;52.742;13.650;2023-07-16T15:35:34;4.03;;;1.70;;
18917;SDS011;9591;52.742;13.650;2023-07-16T15:38:23;2.60;;;1.73;;
18917;SDS011;9591;52.742;13.650;2023-07-16T15:41:09;2.33;;;1.30;;
18917;SDS011;9591;52.742;13.650;2023-07-16T15:43:59;2.80;;;1.40;;
18917;SDS011;9591;52.742;13.650;2023-07-16T15:46:48;1.80;;;1.37;;
18917;SDS011;9591;52.742;13.650;2023-07-16T15:49:35;5.43;;;1.70;;
18917;SDS011;9591;52.742;13.650;2023-07-16T15:52:22;2.60;;;1.60;;
18917;SDS011;9591;52.742;13.650;2023-07-16T15:55:18;6.17;;;1.77;;
18917;SDS011;9591;52.742;13.650;2023-07-16T15:58:07;6.67;;;1.73;;
18917;SDS011;9591;52.742;13.650;2023-07-16T16:00:55;2.80;;;1.40;;
18917;SDS011;9591;52.742;13.650;2023-07-16T16:03:42;3.73;;;1.30;;
18917;SDS011;9591;52.742;13.650;2023-07-16T16:06:30;8.23;;;1.80;;
18917;SDS011;9591;52.742;13.650;2023-07-16T16:09:17;3.77;;;1.40;;
18917;SDS011;9591;52.742;13.650;2023-07-16T16:12:04;4.00;;;1.63;;
18917;SDS011;9591;52.742;13.650;2023-07-16T16:14:51;7.27;;;1.50;;
18917;SDS011;9591;52.742;13.650;2023-07-16T16:17:41;2.77;;;1.40;;
18917;SDS011;9591;52.742;13.650;2023-07-16T16:20:28;2.03;;;1.30;;
18917;SDS011;9591;52.742;13.650;2023-07-16T16:23:15;3.50;;;1.40;;
18917;SDS011;9591;52.742;13.650;2023-07-16T16:26:02;4.47;;;1.43;;
18917;SDS011;9591;52.742;13.650;2023-07-16T16:28:49;4.00;;;1.50;;
18917;SDS011;9591;52.742;13.650;2023-07-16T16:31:36;2.83;;;1.50;;
18917;SDS011;9591;52.742;13.650;2023-07-16T16:34:24;2.03;;;1.27;;
18917;SDS011;9591;52.742;13.650;2023-07-16T16:37:11;3.17;;;1.50;;
18917;SDS011;9591;52.742;13.650;2023-07-16T16:39:58;3.33;;;1.70;;
18917;SDS011;9591;52.742;13.650;2023-07-16T16:42:50;2.90;;;1.50;;
18917;SDS011;9591;52.742;13.650;2023-07-16T16:45:37;4.40;;;1.47;;
18917;SDS011;9591;52.742;13.650;2023-07-16T16:48:27;7.93;;;1.73;;
18917;SDS011;9591;52.742;13.650;2023-07-16T16:51:17;2.80;;;1.57;;
18917;SDS011;9591;52.742;13.650;2023-07-16T16:54:05;1.80;;;1.43;;